Time;durP1;ratioP1;P1;durP2;ratioP2;P2;SDS_P1;SDS_P2;PMS_P1;PMS_P2;Temp;Humidity;BMP_temperature;BMP_pressure;BME280_temperature;BME280_humidity;BME280_pressure;Samples;Min_cycle;Max_cycle;Signal;HPM_P1;HPM_P2
2022/05/31 00:02:28;;;;;;;0.10;0.10;;;15.80;99.90;;;;;;5046965;28;20684;-77
2022/05/31 00:04:59;;;;;;;4.82;1.17;;;15.80;99.90;;;;;;5059150;28;20239;-75
2022/05/31 00:07:30;;;;;;;0.30;0.30;;;15.80;99.90;;;;;;5059070;28;20197;-75
2022/05/31 00:10:00;;;;;;;0.45;0.20;;;15.90;99.90;;;;;;5063253;28;20254;-76
2022/05/31 00:12:31;;;;;;;0.10;0.10;;;15.90;99.90;;;;;;5053213;28;20727;-74
2022/05/31 00:15:02;;;;;;;0.20;0.20;;;15.90;99.90;;;;;;5059337;28;20201;-75
2022/05/31 00:17:34;;;;;;;0.75;0.20;;;15.90;99.90;;;;;;5050017;28;20202;-77
2022/05/31 00:20:05;;;;;;;0.30;0.20;;;16.00;99.90;;;;;;5062569;28;20882;-74
2022/05/31 00:22:38;;;;;;;0.88;0.10;;;16.10;99.90;;;;;;5059751;28;20196;-74
2022/05/31 00:25:10;;;;;;;0.20;0.20;;;16.20;99.90;;;;;;5051926;28;20251;-75
2022/05/31 00:27:40;;;;;;;2.53;0.20;;;16.20;99.90;;;;;;5046600;28;20204;-75
2022/05/31 00:30:13;;;;;;;0.20;0.20;;;16.10;99.90;;;;;;5050687;28;20252;-74
2022/05/31 00:32:50;;;;;;;1.05;0.55;;;16.10;99.90;;;;;;5051322;28;20271;-74
2022/05/31 00:35:23;;;;;;;1.48;0.30;;;16.20;99.90;;;;;;5053438;28;20232;-75
2022/05/31 00:37:56;;;;;;;0.52;0.30;;;16.20;99.90;;;;;;5051205;28;20198;-75
2022/05/31 00:40:28;;;;;;;0.98;0.30;;;16.30;99.90;;;;;;5051390;28;20225;-74
2022/05/31 00:43:00;;;;;;;3.20;0.22;;;16.30;99.90;;;;;;5059766;28;20201;-76
2022/05/31 00:45:37;;;;;;;0.20;0.20;;;16.40;99.90;;;;;;5066462;28;20199;-76
2022/05/31 00:48:14;;;;;;;0.43;0.25;;;16.50;99.90;;;;;;5062779;28;20196;-72
2022/05/31 00:50:52;;;;;;;0.70;0.28;;;16.60;99.90;;;;;;5057216;28;20563;-74
2022/05/31 00:53:27;;;;;;;0.10;0.10;;;16.60;99.90;;;;;;5061076;28;20239;-75
2022/05/31 00:56:01;;;;;;;0.13;0.13;;;16.70;99.90;;;;;;5056080;28;20211;-73
2022/05/31 00:58:34;;;;;;;0.20;0.20;;;16.70;99.90;;;;;;5061511;28;20193;-74
2022/05/31 01:01:09;;;;;;;0.30;0.20;;;16.70;99.90;;;;;;5049666;28;20754;-74
2022/05/31 01:03:44;;;;;;;0.82;0.25;;;16.80;99.90;;;;;;5054667;28;20302;-72
2022/05/31 01:06:15;;;;;;;0.20;0.20;;;16.80;99.90;;;;;;5068137;28;20256;-77
2022/05/31 01:08:47;;;;;;;1.20;0.20;;;16.70;99.90;;;;;;5063193;28;20246;-73
2022/05/31 01:11:21;;;;;;;0.38;0.20;;;16.70;99.90;;;;;;5069959;28;20656;-72
2022/05/31 01:13:52;;;;;;;0.65;0.20;;;16.80;99.90;;;;;;5071671;28;20201;-72
2022/05/31 01:16:23;;;;;;;0.25;0.20;;;16.80;99.90;;;;;;5052301;28;20649;-75
2022/05/31 01:18:55;;;;;;;0.30;0.20;;;16.90;99.90;;;;;;5072016;28;20208;-73
2022/05/31 01:21:28;;;;;;;0.90;0.20;;;17.00;99.90;;;;;;5062116;28;20201;-74
2022/05/31 01:24:08;;;;;;;1.27;0.30;;;17.10;99.90;;;;;;5072169;28;20283;-79
2022/05/31 01:26:46;;;;;;;0.20;0.20;;;17.10;99.90;;;;;;5058543;28;20281;-75
2022/05/31 01:29:20;;;;;;;0.17;0.15;;;17.20;99.90;;;;;;5068894;28;20211;-73
2022/05/31 01:31:58;;;;;;;0.52;0.40;;;17.20;99.90;;;;;;5052344;28;20687;-72
2022/05/31 01:34:35;;;;;;;0.20;0.20;;;17.20;99.90;;;;;;5044621;28;20204;-73
2022/05/31 01:37:09;;;;;;;2.97;0.28;;;17.30;99.90;;;;;;5052197;28;20572;-74
2022/05/31 01:39:43;;;;;;;0.10;0.10;;;17.20;99.90;;;;;;5060742;28;20197;-72
2022/05/31 01:42:20;;;;;;;0.20;0.20;;;17.20;99.90;;;;;;5067565;28;20277;-73
2022/05/31 01:44:55;;;;;;;0.30;0.30;;;17.30;99.90;;;;;;5050447;28;20196;-72
2022/05/31 01:47:26;;;;;;;0.80;0.30;;;17.40;99.90;;;;;;5066059;28;20197;-72
2022/05/31 01:49:57;;;;;;;0.30;0.30;;;17.50;99.90;;;;;;5062104;28;20201;-75
2022/05/31 01:52:30;;;;;;;0.28;0.20;;;17.50;99.90;;;;;;5071472;28;20220;-73
2022/05/31 01:55:04;;;;;;;0.52;0.10;;;17.50;99.90;;;;;;5064212;28;20599;-73
2022/05/31 01:57:36;;;;;;;0.10;0.10;;;17.50;99.90;;;;;;5063566;28;20225;-72
2022/05/31 02:00:10;;;;;;;1.13;0.20;;;17.50;99.90;;;;;;5056205;28;20201;-71
2022/05/31 02:02:41;;;;;;;0.40;0.17;;;17.40;99.90;;;;;;5059227;28;20612;-74
2022/05/31 02:05:12;;;;;;;0.80;0.10;;;17.50;99.90;;;;;;5061195;28;20196;-78
2022/05/31 02:07:45;;;;;;;2.72;0.20;;;17.50;99.90;;;;;;5064669;28;20197;-78
2022/05/31 02:10:16;;;;;;;1.88;0.47;;;17.50;99.90;;;;;;5065057;28;20204;-74
2022/05/31 02:12:46;;;;;;;3.00;0.32;;;17.30;99.90;;;;;;5057332;28;20208;-74
2022/05/31 02:15:17;;;;;;;11.55;6.05;;;17.30;99.90;;;;;;5050459;28;20193;-73
2022/05/31 02:17:48;;;;;;;7.80;5.20;;;17.30;99.90;;;;;;5064626;28;20198;-73
2022/05/31 02:20:19;;;;;;;4.13;1.85;;;17.20;99.90;;;;;;5043668;28;20611;-71
2022/05/31 02:22:52;;;;;;;26.42;14.48;;;17.10;99.90;;;;;;5058560;28;20685;-75
2022/05/31 02:25:22;;;;;;;3.83;2.70;;;17.20;99.90;;;;;;5058490;28;20189;-71
2022/05/31 02:27:53;;;;;;;2.45;0.80;;;17.20;99.90;;;;;;5052583;28;20202;-72
2022/05/31 02:30:24;;;;;;;1.45;0.85;;;17.20;99.90;;;;;;5058357;28;20671;-74
2022/05/31 02:32:54;;;;;;;0.43;0.30;;;17.30;99.90;;;;;;5055473;28;20263;-71
2022/05/31 02:35:25;;;;;;;1.60;0.55;;;17.30;99.90;;;;;;5049051;28;20192;-71
2022/05/31 02:37:58;;;;;;;2.65;0.65;;;17.40;99.90;;;;;;5057901;28;20204;-76
2022/05/31 02:40:29;;;;;;;2.28;0.47;;;17.50;99.90;;;;;;5058676;28;20197;-73
2022/05/31 02:42:59;;;;;;;1.38;0.30;;;17.40;99.90;;;;;;5053744;28;20208;-78
2022/05/31 02:45:31;;;;;;;0.20;0.20;;;17.40;99.90;;;;;;5054684;28;20255;-74
2022/05/31 02:48:01;;;;;;;13.73;1.20;;;17.40;99.90;;;;;;5049107;28;20623;-74
2022/05/31 02:50:32;;;;;;;6.80;0.38;;;17.30;99.90;;;;;;5057367;28;21587;-73
2022/05/31 02:53:05;;;;;;;1.15;0.20;;;17.30;99.90;;;;;;5052299;28;20217;-71
2022/05/31 02:55:35;;;;;;;2.28;0.20;;;17.20;99.90;;;;;;5051277;28;20255;-73
2022/05/31 02:58:06;;;;;;;9.93;5.82;;;17.10;99.90;;;;;;5050881;28;20189;-72
2022/05/31 03:00:37;;;;;;;2.72;1.67;;;16.90;99.90;;;;;;5046776;28;20221;-77
2022/05/31 03:03:08;;;;;;;0.50;0.40;;;16.80;99.90;;;;;;5050360;28;20316;-71
2022/05/31 03:05:39;;;;;;;0.88;0.30;;;16.80;99.90;;;;;;5052080;28;20204;-71
2022/05/31 03:08:12;;;;;;;0.75;0.43;;;16.80;99.90;;;;;;5051348;28;20202;-71
2022/05/31 03:10:46;;;;;;;0.20;0.20;;;16.80;99.90;;;;;;5051115;28;20563;-72
2022/05/31 03:13:20;;;;;;;0.60;0.20;;;16.90;99.90;;;;;;5052282;28;20267;-74
2022/05/31 03:15:50;;;;;;;0.88;0.28;;;17.00;99.90;;;;;;5051360;28;20206;-72
2022/05/31 03:18:25;;;;;;;0.52;0.10;;;16.90;99.90;;;;;;5051399;28;20201;-72
2022/05/31 03:20:58;;;;;;;0.43;0.10;;;16.80;99.90;;;;;;5044019;28;20282;-73
2022/05/31 03:23:35;;;;;;;4.65;2.92;;;16.70;99.90;;;;;;5052533;28;20189;-72
2022/05/31 03:26:10;;;;;;;0.40;0.40;;;16.70;99.90;;;;;;5044998;28;20255;-74
2022/05/31 03:28:41;;;;;;;0.30;0.30;;;16.60;99.90;;;;;;5045323;28;20197;-72
2022/05/31 03:31:12;;;;;;;0.20;0.20;;;16.60;99.90;;;;;;5053083;28;20194;-73
2022/05/31 03:33:43;;;;;;;0.10;0.10;;;16.70;99.90;;;;;;5053020;28;20222;-72
2022/05/31 03:36:14;;;;;;;0.40;0.20;;;16.70;99.90;;;;;;5050572;28;20201;-77
2022/05/31 03:38:46;;;;;;;0.57;0.20;;;16.60;99.90;;;;;;5051013;28;20197;-73
2022/05/31 03:41:17;;;;;;;0.28;0.20;;;16.60;99.90;;;;;;5051174;28;20201;-72
2022/05/31 03:43:48;;;;;;;0.10;0.10;;;16.50;99.90;;;;;;5051829;28;20186;-72
2022/05/31 03:46:19;;;;;;;0.20;0.20;;;16.40;99.90;;;;;;5051426;28;20198;-71
2022/05/31 03:48:50;;;;;;;0.10;0.10;;;16.50;99.90;;;;;;5051969;28;20193;-72
2022/05/31 03:51:21;;;;;;;0.90;0.20;;;16.50;99.90;;;;;;5053885;28;20205;-73
2022/05/31 03:53:54;;;;;;;0.35;0.20;;;16.50;99.90;;;;;;5055547;28;20680;-71
2022/05/31 03:56:24;;;;;;;1.02;0.10;;;16.50;99.90;;;;;;5048855;28;20205;-72
2022/05/31 03:58:55;;;;;;;0.20;0.20;;;16.30;99.90;;;;;;5055281;28;20186;-73
2022/05/31 04:01:25;;;;;;;0.35;0.10;;;16.10;99.90;;;;;;5054379;28;20760;-71
2022/05/31 04:03:56;;;;;;;0.10;0.10;;;15.90;99.90;;;;;;5054963;28;20229;-74
2022/05/31 04:06:27;;;;;;;0.20;0.20;;;15.70;99.90;;;;;;5052677;28;20236;-76
2022/05/31 04:08:59;;;;;;;0.50;0.30;;;15.50;99.90;;;;;;5054352;28;20194;-73
2022/05/31 04:11:31;;;;;;;1.48;0.20;;;15.50;99.90;;;;;;5053145;28;20201;-73
2022/05/31 04:14:02;;;;;;;0.22;0.20;;;15.40;99.90;;;;;;5053105;28;20263;-76
2022/05/31 04:16:32;;;;;;;0.38;0.20;;;15.40;99.90;;;;;;5050482;28;20247;-72
2022/05/31 04:19:03;;;;;;;0.32;0.20;;;15.40;99.90;;;;;;5054695;28;20230;-73
2022/05/31 04:21:34;;;;;;;0.30;0.20;;;15.40;99.90;;;;;;5049698;28;20534;-73
2022/05/31 04:24:11;;;;;;;0.30;0.20;;;15.40;99.90;;;;;;5054813;28;20216;-73
2022/05/31 04:26:43;;;;;;;0.63;0.32;;;15.40;99.90;;;;;;5054773;28;20247;-74
2022/05/31 04:29:14;;;;;;;0.25;0.20;;;15.30;99.90;;;;;;5053535;28;20200;-73
2022/05/31 04:31:44;;;;;;;0.20;0.20;;;15.20;99.90;;;;;;5054337;28;20259;-73
2022/05/31 04:34:15;;;;;;;0.10;0.10;;;15.10;99.90;;;;;;5052985;28;20209;-72
2022/05/31 04:36:46;;;;;;;0.85;0.20;;;15.00;99.90;;;;;;5053746;28;20681;-74
2022/05/31 04:39:18;;;;;;;0.85;0.30;;;14.90;99.90;;;;;;5054595;28;20268;-72
2022/05/31 04:41:49;;;;;;;1.27;0.40;;;14.90;99.90;;;;;;5055822;28;20664;-75
2022/05/31 04:44:20;;;;;;;1.60;0.70;;;14.80;99.90;;;;;;5054477;28;20194;-73
2022/05/31 04:46:50;;;;;;;2.30;0.35;;;14.80;99.90;;;;;;5054678;28;20556;-72
2022/05/31 04:49:21;;;;;;;2.30;0.30;;;14.90;99.90;;;;;;5054207;28;20557;-76
2022/05/31 04:51:52;;;;;;;0.20;0.20;;;14.90;99.90;;;;;;5054777;28;20197;-74
2022/05/31 04:54:27;;;;;;;0.30;0.20;;;14.80;99.90;;;;;;5054106;28;20687;-73
2022/05/31 04:56:59;;;;;;;0.28;0.10;;;14.90;99.90;;;;;;5052099;28;20205;-72
2022/05/31 04:59:30;;;;;;;0.20;0.20;;;14.90;99.90;;;;;;5051357;28;20197;-72
2022/05/31 05:02:01;;;;;;;0.20;0.20;;;14.90;99.90;;;;;;5058249;28;20255;-74
2022/05/31 05:04:32;;;;;;;0.50;0.20;;;14.90;99.90;;;;;;5053987;28;20240;-74
2022/05/31 05:07:02;;;;;;;0.32;0.20;;;15.10;99.90;;;;;;5053412;28;20644;-74
2022/05/31 05:09:35;;;;;;;1.75;0.30;;;15.10;99.90;;;;;;5053763;28;20554;-74
2022/05/31 05:12:06;;;;;;;0.22;0.22;;;15.10;99.90;;;;;;5052038;28;20262;-74
2022/05/31 05:14:37;;;;;;;0.70;0.30;;;15.10;99.90;;;;;;5052295;28;20217;-73
2022/05/31 05:17:07;;;;;;;0.30;0.20;;;15.00;99.90;;;;;;5052825;28;20548;-73
2022/05/31 05:19:38;;;;;;;2.42;0.55;;;15.00;99.90;;;;;;5051982;28;20192;-75
2022/05/31 05:22:09;;;;;;;0.75;0.20;;;14.90;99.90;;;;;;5052201;28;20201;-73
2022/05/31 05:24:41;;;;;;;0.20;0.20;;;14.90;99.90;;;;;;5053388;28;20197;-73
2022/05/31 05:27:12;;;;;;;0.77;0.32;;;14.80;99.90;;;;;;5053736;28;20576;-73
2022/05/31 05:32:29;;;;;;;0.88;0.40;;;14.70;99.90;;;;;;5046507;28;20699;-74
2022/05/31 05:35:00;;;;;;;1.70;0.30;;;14.70;99.90;;;;;;5053492;28;20218;-74
2022/05/31 05:37:30;;;;;;;1.85;0.40;;;14.60;99.90;;;;;;5060062;28;20247;-74
2022/05/31 05:40:03;;;;;;;2.45;0.52;;;14.50;99.90;;;;;;5059553;28;20197;-72
2022/05/31 05:42:33;;;;;;;0.80;0.43;;;14.30;99.90;;;;;;5053324;28;20217;-73
2022/05/31 05:45:05;;;;;;;1.00;0.38;;;14.10;99.90;;;;;;5044394;28;20213;-73
2022/05/31 05:47:35;;;;;;;0.95;0.47;;;13.90;99.90;;;;;;5052498;28;20190;-74
2022/05/31 05:50:07;;;;;;;0.40;0.30;;;13.60;99.90;;;;;;5053322;28;20304;-74
2022/05/31 05:52:38;;;;;;;1.40;0.60;;;13.30;99.90;;;;;;5056681;28;20193;-74
2022/05/31 05:55:12;;;;;;;0.88;0.40;;;13.10;99.90;;;;;;5052931;28;20288;-73
2022/05/31 05:57:43;;;;;;;1.80;0.50;;;12.90;99.90;;;;;;5052666;28;20193;-76
2022/05/31 06:00:14;;;;;;;1.30;0.40;;;12.80;99.90;;;;;;5047231;28;20300;-73
2022/05/31 06:02:49;;;;;;;0.73;0.45;;;12.70;99.90;;;;;;5052236;28;20190;-74
2022/05/31 06:05:23;;;;;;;1.20;0.50;;;12.60;99.90;;;;;;5044632;28;20251;-72
2022/05/31 06:07:58;;;;;;;0.45;0.30;;;12.50;99.90;;;;;;5053085;28;20193;-75
2022/05/31 06:10:36;;;;;;;1.40;0.40;;;12.40;99.90;;;;;;5052977;28;20185;-73
2022/05/31 06:13:12;;;;;;;0.93;0.50;;;12.20;99.90;;;;;;5052216;28;20194;-73
2022/05/31 06:15:46;;;;;;;1.75;0.50;;;12.10;99.90;;;;;;5048134;28;20189;-73
2022/05/31 06:18:19;;;;;;;1.90;0.40;;;12.00;99.90;;;;;;5046045;28;20204;-73
2022/05/31 06:20:52;;;;;;;0.77;0.50;;;12.00;99.90;;;;;;5049795;28;20208;-74
2022/05/31 06:23:23;;;;;;;1.02;0.47;;;11.90;99.90;;;;;;5048988;28;20206;-76
2022/05/31 06:25:56;;;;;;;2.33;0.40;;;11.90;99.90;;;;;;5051973;28;20194;-73
2022/05/31 06:28:27;;;;;;;0.30;0.30;;;11.90;99.90;;;;;;5052184;28;20576;-74
2022/05/31 06:30:57;;;;;;;0.20;0.20;;;12.00;99.90;;;;;;5052825;28;20190;-78
2022/05/31 06:33:28;;;;;;;0.80;0.30;;;12.00;99.90;;;;;;5050514;28;20692;-77
2022/05/31 06:36:01;;;;;;;2.00;0.30;;;12.10;99.90;;;;;;5047943;28;20632;-77
2022/05/31 06:38:31;;;;;;;0.47;0.40;;;12.10;99.90;;;;;;5051317;28;20201;-79
2022/05/31 06:41:04;;;;;;;0.40;0.40;;;12.20;99.90;;;;;;5052305;28;20194;-79
2022/05/31 06:43:35;;;;;;;0.93;0.50;;;12.10;99.90;;;;;;5052684;28;20190;-85
2022/05/31 06:46:07;;;;;;;0.52;0.50;;;12.10;99.90;;;;;;5050654;28;20243;-76
2022/05/31 06:48:38;;;;;;;0.77;0.30;;;12.10;99.90;;;;;;5049296;28;20232;-77
2022/05/31 06:51:10;;;;;;;0.68;0.40;;;12.00;99.90;;;;;;5048196;28;20676;-76
2022/05/31 06:59:16;;;;;;;1.00;0.45;;;12.00;99.90;;;;;;5041573;28;20259;-74
2022/05/31 07:01:48;;;;;;;1.08;0.60;;;11.90;99.90;;;;;;5038631;28;20224;-73
2022/05/31 07:04:19;;;;;;;0.80;0.60;;;11.90;99.90;;;;;;5039777;28;20237;-75
2022/05/31 07:06:50;;;;;;;1.67;0.47;;;11.90;99.90;;;;;;5043212;28;20221;-74
2022/05/31 07:09:20;;;;;;;0.43;0.43;;;11.90;99.90;;;;;;5040515;28;20193;-81
2022/05/31 07:11:53;;;;;;;0.47;0.47;;;11.90;99.90;;;;;;5042162;28;20202;-76
2022/05/31 07:14:24;;;;;;;1.50;0.50;;;12.00;99.90;;;;;;5040753;28;20213;-78
2022/05/31 07:16:55;;;;;;;1.70;0.50;;;12.00;99.90;;;;;;5042681;28;20198;-73
2022/05/31 07:19:26;;;;;;;0.65;0.40;;;12.00;99.90;;;;;;5040220;28;20201;-77
2022/05/31 07:22:00;;;;;;;0.75;0.40;;;12.00;99.90;;;;;;5042189;28;20760;-77
2022/05/31 07:24:32;;;;;;;0.30;0.30;;;12.00;99.90;;;;;;5043579;28;20202;-77
2022/05/31 07:27:05;;;;;;;0.43;0.40;;;12.00;99.90;;;;;;5050449;28;20251;-76
2022/05/31 07:29:35;;;;;;;0.57;0.40;;;12.00;99.90;;;;;;5053575;28;20193;-75
2022/05/31 07:32:07;;;;;;;0.85;0.30;;;12.00;99.90;;;;;;5052526;28;20182;-74
2022/05/31 07:34:38;;;;;;;0.40;0.30;;;12.00;99.90;;;;;;5050095;28;20268;-77
2022/05/31 07:37:09;;;;;;;0.40;0.30;;;11.90;99.90;;;;;;5049132;28;20197;-72
2022/05/31 07:39:40;;;;;;;0.98;0.30;;;11.90;99.90;;;;;;5051531;28;20264;-75
2022/05/31 07:42:12;;;;;;;0.30;0.30;;;11.90;99.90;;;;;;5052096;28;20671;-75
2022/05/31 07:44:43;;;;;;;0.40;0.40;;;11.90;99.90;;;;;;5049816;28;20197;-75
2022/05/31 07:47:13;;;;;;;0.40;0.40;;;11.90;99.90;;;;;;5053543;28;20611;-74
2022/05/31 07:49:44;;;;;;;0.40;0.40;;;11.90;99.90;;;;;;5050751;28;20553;-73
2022/05/31 07:52:15;;;;;;;0.30;0.30;;;11.90;99.90;;;;;;5049923;28;20587;-73
2022/05/31 07:54:45;;;;;;;0.85;0.50;;;11.90;99.90;;;;;;5055385;28;20229;-75
2022/05/31 08:00:05;;;;;;;0.65;0.30;;;11.90;99.90;;;;;;5048414;28;20344;-73
2022/05/31 08:02:35;;;;;;;0.50;0.50;;;11.90;99.90;;;;;;5048342;28;20195;-73
2022/05/31 08:05:06;;;;;;;2.88;0.60;;;11.90;99.90;;;;;;5047170;28;20182;-73
2022/05/31 08:07:37;;;;;;;0.40;0.40;;;11.90;99.90;;;;;;5046796;28;20241;-73
2022/05/31 08:10:10;;;;;;;0.63;0.43;;;11.90;99.90;;;;;;5049117;28;20208;-73
2022/05/31 08:12:43;;;;;;;1.00;0.60;;;11.90;99.90;;;;;;5048500;28;20186;-73
2022/05/31 08:15:14;;;;;;;0.50;0.50;;;11.90;99.90;;;;;;5049831;28;20229;-74
2022/05/31 08:17:46;;;;;;;1.25;0.52;;;11.90;99.90;;;;;;5051115;28;20600;-73
2022/05/31 08:20:18;;;;;;;1.35;0.65;;;11.80;99.90;;;;;;5048900;28;20197;-74
2022/05/31 08:22:49;;;;;;;0.70;0.50;;;11.90;99.90;;;;;;5049110;28;20276;-74
2022/05/31 08:25:20;;;;;;;1.83;0.55;;;11.90;99.90;;;;;;5048570;28;20284;-73
2022/05/31 08:27:53;;;;;;;2.35;0.60;;;11.90;99.90;;;;;;5053072;28;20263;-71
2022/05/31 08:30:23;;;;;;;0.60;0.60;;;11.90;99.90;;;;;;5049286;28;20221;-72
2022/05/31 08:32:54;;;;;;;2.20;0.60;;;11.90;99.90;;;;;;5047372;28;20734;-72
2022/05/31 08:35:25;;;;;;;1.42;0.60;;;11.80;99.90;;;;;;5049232;28;20228;-72
2022/05/31 08:37:56;;;;;;;3.10;0.60;;;11.80;99.90;;;;;;5050166;28;20600;-77
2022/05/31 08:40:27;;;;;;;0.60;0.60;;;11.80;99.90;;;;;;5045378;28;20243;-72
2022/05/31 08:43:05;;;;;;;1.83;0.90;;;11.80;99.90;;;;;;5048062;28;20675;-74
2022/05/31 08:45:41;;;;;;;1.20;0.60;;;11.80;99.90;;;;;;5052936;28;20186;-72
2022/05/31 08:48:24;;;;;;;1.05;0.60;;;11.70;99.90;;;;;;5049307;28;20216;-73
2022/05/31 08:57:00;;;;;;;2.65;0.70;;;11.70;99.90;;;;;;5050524;28;20277;-73
2022/05/31 08:59:39;;;;;;;0.57;0.50;;;11.70;99.90;;;;;;5042228;28;20206;-73
2022/05/31 09:02:19;;;;;;;0.93;0.60;;;11.80;99.90;;;;;;5047590;28;20198;-72
2022/05/31 09:04:54;;;;;;;2.47;0.70;;;11.80;99.90;;;;;;5045992;28;20237;-73
2022/05/31 09:07:30;;;;;;;2.60;0.70;;;11.70;99.90;;;;;;5045281;28;20661;-73
2022/05/31 09:10:06;;;;;;;0.90;0.60;;;11.70;99.90;;;;;;5051250;28;20208;-73
2022/05/31 09:12:44;;;;;;;1.52;0.60;;;11.70;99.90;;;;;;5052757;28;20189;-72
2022/05/31 09:15:20;;;;;;;0.70;0.55;;;11.70;99.90;;;;;;5050829;28;20213;-80
2022/05/31 09:18:06;;;;;;;101.82;46.13;;;11.70;99.90;;;;;;5052234;28;20281;-73
2022/05/31 09:20:41;;;;;;;53.78;27.70;;;11.70;99.90;;;;;;5047366;28;21063;-73
2022/05/31 09:23:15;;;;;;;17.95;8.25;;;11.70;99.90;;;;;;5048817;28;20247;-72
2022/05/31 09:25:46;;;;;;;6.32;3.20;;;11.70;99.90;;;;;;5051579;28;20194;-73
2022/05/31 09:28:28;;;;;;;5.10;2.60;;;11.70;99.90;;;;;;5050045;28;20205;-72
2022/05/31 09:31:04;;;;;;;7.10;3.35;;;11.70;99.90;;;;;;5052720;28;20284;-73
2022/05/31 09:33:40;;;;;;;4.47;2.00;;;11.70;99.90;;;;;;5051163;28;20194;-72
2022/05/31 09:36:24;;;;;;;3.33;1.30;;;11.60;99.90;;;;;;5048212;28;20691;-71
2022/05/31 09:39:14;;;;;;;2.42;1.13;;;11.60;99.90;;;;;;5047197;28;20197;-72
2022/05/31 09:41:50;;;;;;;2.75;1.40;;;11.60;99.90;;;;;;5049102;28;20247;-72
2022/05/31 09:44:27;;;;;;;1.73;1.17;;;11.70;99.90;;;;;;5051019;28;20201;-73
2022/05/31 09:47:06;;;;;;;2.25;1.05;;;11.60;99.90;;;;;;5047747;28;20189;-74
2022/05/31 09:49:43;;;;;;;1.40;1.15;;;11.60;99.90;;;;;;5048370;28;20216;-72
2022/05/31 09:52:17;;;;;;;2.17;1.15;;;11.60;99.90;;;;;;5049367;28;20624;-72
2022/05/31 09:58:01;;;;;;;1.23;1.00;;;11.50;99.90;;;;;;5047690;28;20248;-81
2022/05/31 10:00:32;;;;;;;1.95;0.90;;;11.50;99.90;;;;;;5048767;28;20256;-71
2022/05/31 10:03:19;;;;;;;0.90;0.85;;;11.40;99.90;;;;;;5051310;28;20229;-72
2022/05/31 10:06:06;;;;;;;2.22;0.90;;;11.40;99.90;;;;;;5048106;28;20680;-73
2022/05/31 10:08:37;;;;;;;2.70;0.85;;;11.40;99.90;;;;;;5051204;28;20193;-72
2022/05/31 10:11:12;;;;;;;2.78;0.77;;;11.40;99.90;;;;;;5050153;28;20197;-73
2022/05/31 10:13:44;;;;;;;1.02;0.60;;;11.50;99.90;;;;;;5047428;28;20651;-72
2022/05/31 10:16:25;;;;;;;2.30;0.70;;;11.50;99.90;;;;;;5048550;28;20217;-72
2022/05/31 10:19:00;;;;;;;1.33;0.63;;;11.50;99.90;;;;;;5048907;28;20608;-72
2022/05/31 10:21:34;;;;;;;2.05;0.52;;;11.60;99.90;;;;;;5047747;28;20203;-72
2022/05/31 10:24:10;;;;;;;0.82;0.57;;;11.70;99.90;;;;;;5049206;28;20247;-73
2022/05/31 10:26:41;;;;;;;3.50;0.60;;;11.70;99.90;;;;;;5050665;28;20205;-73
2022/05/31 10:29:17;;;;;;;1.30;0.52;;;11.70;99.90;;;;;;5047908;28;20584;-74
2022/05/31 10:31:50;;;;;;;0.60;0.60;;;11.80;99.90;;;;;;5047878;28;20690;-73
2022/05/31 10:34:36;;;;;;;1.10;0.40;;;11.90;99.90;;;;;;5050173;28;20269;-76
2022/05/31 10:37:10;;;;;;;1.92;0.75;;;11.90;99.90;;;;;;5046363;28;20196;-72
2022/05/31 10:39:41;;;;;;;1.23;0.70;;;11.90;99.90;;;;;;5047651;28;20203;-73
2022/05/31 10:42:15;;;;;;;0.90;0.52;;;12.00;99.90;;;;;;5046769;28;20213;-72
2022/05/31 10:44:52;;;;;;;3.95;0.60;;;11.90;99.90;;;;;;5046751;28;20285;-72
2022/05/31 10:47:24;;;;;;;3.35;0.60;;;11.90;99.90;;;;;;5045141;28;20193;-73
2022/05/31 10:49:57;;;;;;;1.58;0.70;;;11.90;99.90;;;;;;5050776;28;20648;-73
2022/05/31 10:52:33;;;;;;;1.45;0.57;;;11.90;99.90;;;;;;5046449;28;20675;-73
2022/05/31 10:55:30;;;;;;;1.95;0.68;;;11.80;99.90;;;;;;5048336;28;20217;-73
2022/05/31 10:58:14;;;;;;;1.92;0.70;;;11.80;99.90;;;;;;5049188;28;20198;-73
2022/05/31 11:00:55;;;;;;;2.63;0.70;;;11.80;99.90;;;;;;5050012;28;20279;-73
2022/05/31 11:03:33;;;;;;;1.10;0.80;;;11.80;99.90;;;;;;5053490;28;20225;-73
2022/05/31 11:06:29;;;;;;;2.65;0.75;;;11.80;99.90;;;;;;5048228;28;20189;-73
2022/05/31 11:12:08;;;;;;;2.38;0.70;;;11.70;99.90;;;;;;5054130;28;20208;-72
2022/05/31 11:14:53;;;;;;;3.83;0.80;;;11.70;99.90;;;;;;5054152;28;20198;-74
2022/05/31 11:17:37;;;;;;;1.65;0.70;;;11.70;99.90;;;;;;5056408;28;20190;-73
2022/05/31 11:20:16;;;;;;;1.90;0.70;;;11.70;99.90;;;;;;5048416;28;20201;-73
2022/05/31 11:23:09;;;;;;;1.70;0.50;;;11.70;99.90;;;;;;5055125;28;20193;-75
2022/05/31 11:25:57;;;;;;;0.50;0.50;;;11.80;99.90;;;;;;5054869;28;20197;-72
2022/05/31 11:28:46;;;;;;;0.55;0.30;;;11.80;99.90;;;;;;5055126;28;20269;-75
2022/05/31 11:31:31;;;;;;;1.83;0.45;;;12.00;99.90;;;;;;5049670;28;20538;-74
2022/05/31 11:34:21;;;;;;;1.30;0.38;;;12.00;99.90;;;;;;5054994;28;20562;-73
2022/05/31 11:37:04;;;;;;;2.13;0.60;;;12.00;99.90;;;;;;5055762;28;20679;-72
2022/05/31 11:39:50;;;;;;;1.17;0.47;;;12.00;99.90;;;;;;5054080;28;20189;-75
2022/05/31 11:42:34;;;;;;;3.42;0.40;;;12.10;99.90;;;;;;5048485;28;20197;-72
2022/05/31 11:45:10;;;;;;;1.30;0.40;;;12.00;99.90;;;;;;5053206;28;20202;-73
2022/05/31 11:48:20;;;;;;;1.25;0.40;;;12.00;99.90;;;;;;5052063;28;20201;-72
2022/05/31 11:51:04;;;;;;;0.50;0.30;;;12.00;99.90;;;;;;5052516;28;20210;-73
2022/05/31 11:54:07;;;;;;;1.33;0.88;;;11.90;99.90;;;;;;5052070;28;20197;-73
2022/05/31 11:56:46;;;;;;;1.10;0.30;;;11.90;99.90;;;;;;5045727;28;20229;-72
2022/05/31 11:59:21;;;;;;;0.63;0.40;;;11.80;99.90;;;;;;5047231;28;20193;-73
2022/05/31 12:01:55;;;;;;;2.42;0.40;;;11.90;99.90;;;;;;5054014;28;20204;-74
2022/05/31 12:04:35;;;;;;;0.63;0.30;;;11.90;99.90;;;;;;5053601;28;20225;-74
2022/05/31 12:07:12;;;;;;;0.40;0.40;;;11.90;99.90;;;;;;5055122;28;20193;-75
2022/05/31 12:09:46;;;;;;;0.50;0.45;;;12.00;99.90;;;;;;5055067;28;20190;-73
2022/05/31 12:12:27;;;;;;;1.45;0.50;;;11.90;99.90;;;;;;5050366;28;20263;-73
2022/05/31 12:15:05;;;;;;;1.05;0.50;;;11.90;99.90;;;;;;5055081;28;20193;-77
2022/05/31 12:17:41;;;;;;;1.77;0.43;;;11.90;99.90;;;;;;5049670;28;20197;-73
2022/05/31 12:20:20;;;;;;;1.25;0.40;;;11.90;99.90;;;;;;5054335;28;20291;-72
2022/05/31 12:22:58;;;;;;;0.60;0.40;;;11.90;99.90;;;;;;5053334;28;20205;-73
2022/05/31 12:25:32;;;;;;;0.60;0.38;;;11.90;99.90;;;;;;5049638;28;20198;-75
2022/05/31 12:28:15;;;;;;;0.75;0.30;;;11.90;99.90;;;;;;5053481;28;20204;-72
2022/05/31 12:30:54;;;;;;;1.55;0.50;;;11.80;99.90;;;;;;5053332;28;20229;-73
2022/05/31 12:33:42;;;;;;;1.48;0.43;;;11.80;99.90;;;;;;5046530;28;20552;-73
2022/05/31 12:36:14;;;;;;;0.40;0.38;;;11.80;99.90;;;;;;5054444;28;20652;-72
2022/05/31 12:39:04;;;;;;;1.65;0.50;;;12.00;99.90;;;;;;5054381;28;20189;-73
2022/05/31 12:41:37;;;;;;;1.95;0.50;;;11.90;99.90;;;;;;5050124;28;20532;-74
2022/05/31 12:44:15;;;;;;;0.55;0.40;;;11.90;99.90;;;;;;5050570;28;20259;-73
2022/05/31 12:46:47;;;;;;;0.63;0.40;;;11.90;99.90;;;;;;5052136;28;20193;-73
2022/05/31 12:49:27;;;;;;;0.98;0.40;;;11.90;99.90;;;;;;5054544;28;20190;-72
2022/05/31 12:55:01;;;;;;;1.20;0.43;;;11.80;99.90;;;;;;5016259;28;20205;-72
2022/05/31 13:00:48;;;;;;;0.82;0.30;;;11.90;99.90;;;;;;5051909;28;20204;-72
2022/05/31 13:03:53;;;;;;;0.55;0.30;;;11.80;99.90;;;;;;5050539;28;20233;-73
2022/05/31 13:06:35;;;;;;;1.10;0.45;;;11.80;99.90;;;;;;5053573;28;20205;-72
2022/05/31 13:09:13;;;;;;;0.55;0.20;;;11.80;99.90;;;;;;5053865;28;20268;-72
2022/05/31 13:20:44;;;;;;;0.30;0.20;;;11.70;99.90;;;;;;5042397;28;20686;-72
2022/05/31 13:23:19;;;;;;;0.63;0.30;;;11.70;99.90;;;;;;5058967;28;20201;-72
2022/05/31 13:25:53;;;;;;;0.60;0.22;;;11.70;99.90;;;;;;5053866;28;20251;-72
2022/05/31 13:28:32;;;;;;;1.77;0.30;;;11.70;99.90;;;;;;5053332;28;20197;-73
2022/05/31 13:31:05;;;;;;;0.63;0.40;;;11.60;99.90;;;;;;5053633;28;20186;-72
2022/05/31 13:33:38;;;;;;;0.35;0.30;;;11.60;99.90;;;;;;5053558;28;20235;-72
2022/05/31 13:36:17;;;;;;;0.88;0.30;;;11.60;99.90;;;;;;5053958;28;20224;-72
2022/05/31 13:38:51;;;;;;;0.85;0.30;;;11.50;99.90;;;;;;5046570;28;20189;-72
2022/05/31 13:41:23;;;;;;;1.88;0.30;;;11.50;99.90;;;;;;5053759;28;20592;-74
2022/05/31 13:43:56;;;;;;;0.93;0.40;;;11.50;99.90;;;;;;5054095;28;20216;-73
2022/05/31 13:46:31;;;;;;;2.63;0.45;;;11.50;99.90;;;;;;5053665;28;20201;-73
2022/05/31 13:49:08;;;;;;;0.75;0.30;;;11.40;99.90;;;;;;5053921;28;20189;-73
2022/05/31 13:51:39;;;;;;;1.17;0.40;;;11.50;99.90;;;;;;5053696;28;20193;-73
2022/05/31 13:54:14;;;;;;;0.75;0.30;;;11.50;99.90;;;;;;5049262;28;20194;-73
2022/05/31 13:56:48;;;;;;;2.60;0.40;;;11.40;99.90;;;;;;5052224;28;20236;-74
2022/05/31 13:59:33;;;;;;;1.15;0.40;;;11.40;99.90;;;;;;5052611;28;20189;-72
2022/05/31 14:02:05;;;;;;;0.30;0.30;;;11.40;99.90;;;;;;5051339;28;20209;-72